Time;durP1;ratioP1;P1;durP2;ratioP2;P2;SDS_P1;SDS_P2;PMS_P1;PMS_P2;Temp;Humidity;BMP_temperature;BMP_pressure;BME280_temperature;BME280_humidity;BME280_pressure;Samples;Min_cycle;Max_cycle;Signal;HPM_P1;HPM_P2
2023/04/13 00:01:14;;;;;;;12.15;2.72;;;;;;;;;;4934639;29;20191;-64
2023/04/13 00:03:41;;;;;;;13.38;2.88;;;;;;;;;;4934911;29;20058;-64
2023/04/13 00:06:10;;;;;;;15.48;3.47;;;;;;;;;;4934622;29;20122;-63
2023/04/13 00:08:37;;;;;;;11.43;2.25;;;;;;;;;;4934715;29;20411;-64
2023/04/13 00:11:04;;;;;;;14.38;2.80;;;;;;;;;;4934883;29;20130;-64
2023/04/13 00:13:30;;;;;;;17.83;2.83;;;;;;;;;;4934972;29;20130;-64
2023/04/13 00:15:59;;;;;;;18.52;3.50;;;;;;;;;;4934559;29;20051;-64
2023/04/13 00:18:25;;;;;;;13.35;3.75;;;;;;;;;;4934783;29;20142;-64
2023/04/13 00:20:52;;;;;;;16.75;4.03;;;;;;;;;;4934542;29;20499;-64
2023/04/13 00:23:18;;;;;;;12.48;3.03;;;;;;;;;;4934676;29;20043;-64
2023/04/13 00:25:45;;;;;;;12.25;3.15;;;;;;;;;;4934762;29;20058;-64
2023/04/13 00:28:11;;;;;;;13.95;3.03;;;;;;;;;;4934475;29;20055;-64
2023/04/13 00:30:37;;;;;;;13.15;3.17;;;;;;;;;;4934697;29;20093;-64
2023/04/13 00:33:04;;;;;;;16.95;3.47;;;;;;;;;;4934581;29;20139;-64
2023/04/13 00:35:30;;;;;;;13.82;2.92;;;;;;;;;;4934722;29;20062;-64
2023/04/13 00:37:57;;;;;;;13.80;2.67;;;;;;;;;;4934388;29;20588;-64
2023/04/13 00:40:24;;;;;;;11.38;2.40;;;;;;;;;;4934650;29;20048;-64
2023/04/13 00:42:50;;;;;;;13.15;2.78;;;;;;;;;;4934256;29;20508;-64
2023/04/13 00:45:17;;;;;;;10.43;2.10;;;;;;;;;;4934566;29;20452;-64
2023/04/13 00:47:45;;;;;;;10.40;2.58;;;;;;;;;;4934581;29;20047;-64
2023/04/13 00:50:12;;;;;;;;;;;;;;;;;;4934806;29;20062;-64
2023/04/13 00:52:39;;;;;;;8.63;2.60;;;;;;;;;;4934304;29;19934;-64
2023/04/13 00:55:06;;;;;;;18.35;3.08;;;;;;;;;;4934248;29;20051;-64
2023/04/13 00:57:33;;;;;;;14.95;3.20;;;;;;;;;;4934460;29;20083;-64
2023/04/13 01:00:00;;;;;;;13.52;2.70;;;;;;;;;;4934281;29;20055;-64
2023/04/13 01:02:26;;;;;;;15.18;3.58;;;;;;;;;;4934092;29;20079;-64
2023/04/13 01:04:54;;;;;;;23.67;3.08;;;;;;;;;;4934040;29;20058;-64
2023/04/13 01:07:26;;;;;;;11.23;2.47;;;;;;;;;;4934371;29;20039;-64
2023/04/13 01:09:53;;;;;;;12.52;2.97;;;;;;;;;;4934202;29;20051;-64
2023/04/13 01:12:38;;;;;;;14.43;2.88;;;;;;;;;;4934971;29;20496;-63
2023/04/13 01:15:07;;;;;;;18.63;3.70;;;;;;;;;;4938004;29;20061;-63
2023/04/13 01:17:36;;;;;;;13.20;3.95;;;;;;;;;;4936787;29;20527;-64
2023/04/13 01:20:12;;;;;;;12.13;2.92;;;;;;;;;;4937609;29;20503;-64
2023/04/13 01:22:41;;;;;;;18.13;3.78;;;;;;;;;;4937488;29;20051;-63
2023/04/13 01:25:08;;;;;;;14.60;2.90;;;;;;;;;;4937815;29;20039;-64
2023/04/13 01:27:46;;;;;;;12.13;3.08;;;;;;;;;;4937425;29;20062;-64
2023/04/13 01:30:24;;;;;;;13.48;2.55;;;;;;;;;;4937473;29;20507;-64
2023/04/13 01:32:51;;;;;;;12.57;2.90;;;;;;;;;;4937374;29;20047;-64
2023/04/13 01:35:20;;;;;;;16.38;3.33;;;;;;;;;;4937632;29;20059;-64
2023/04/13 01:37:47;;;;;;;11.38;2.67;;;;;;;;;;4937589;29;20135;-63
2023/04/13 01:40:13;;;;;;;13.00;2.55;;;;;;;;;;4937530;29;20078;-63
2023/04/13 01:42:41;;;;;;;9.50;2.22;;;;;;;;;;4937155;29;20048;-63
2023/04/13 01:45:12;;;;;;;11.10;2.70;;;;;;;;;;4937328;29;20134;-64
2023/04/13 01:47:41;;;;;;;7.70;2.30;;;;;;;;;;4937198;29;20476;-63
2023/04/13 01:50:12;;;;;;;9.05;2.75;;;;;;;;;;4937366;29;20051;-64
2023/04/13 01:52:40;;;;;;;15.30;3.33;;;;;;;;;;4937278;29;20130;-64
2023/04/13 01:55:06;;;;;;;9.68;2.78;;;;;;;;;;4937250;29;20058;-64
2023/04/13 01:57:34;;;;;;;14.27;3.30;;;;;;;;;;4937255;29;20055;-64
2023/04/13 02:00:13;;;;;;;13.80;3.30;;;;;;;;;;4936876;29;20052;-64
2023/04/13 02:02:39;;;;;;;9.00;2.72;;;;;;;;;;4936994;29;20200;-64
2023/04/13 02:05:08;;;;;;;11.10;2.70;;;;;;;;;;4936644;29;20526;-63
2023/04/13 02:07:34;;;;;;;11.35;2.63;;;;;;;;;;4937050;29;20054;-64
2023/04/13 02:10:04;;;;;;;10.88;2.55;;;;;;;;;;4936774;29;20047;-63
2023/04/13 02:12:32;;;;;;;13.23;2.35;;;;;;;;;;4937085;29;20134;-64
2023/04/13 02:14:59;;;;;;;10.18;2.85;;;;;;;;;;4936710;29;20047;-63
2023/04/13 02:17:28;;;;;;;15.05;2.88;;;;;;;;;;4936905;29;20473;-63
2023/04/13 02:19:57;;;;;;;11.60;2.33;;;;;;;;;;4936898;29;20063;-63
2023/04/13 02:22:24;;;;;;;13.75;2.72;;;;;;;;;;4936459;29;20403;-63
2023/04/13 02:24:50;;;;;;;11.38;2.72;;;;;;;;;;4935626;29;20054;-64
2023/04/13 02:27:17;;;;;;;9.98;2.40;;;;;;;;;;4936284;29;20054;-63
2023/04/13 02:29:43;;;;;;;13.02;2.80;;;;;;;;;;4936397;29;20090;-63
2023/04/13 02:32:10;;;;;;;11.32;2.55;;;;;;;;;;4936615;29;20138;-64
2023/04/13 02:34:36;;;;;;;14.85;3.35;;;;;;;;;;4936297;29;20056;-63
2023/04/13 02:37:02;;;;;;;17.38;3.65;;;;;;;;;;4936276;29;20057;-63
2023/04/13 02:39:29;;;;;;;11.48;3.20;;;;;;;;;;4936430;29;20074;-63
2023/04/13 02:41:56;;;;;;;13.93;3.58;;;;;;;;;;4936299;29;20142;-63
2023/04/13 02:47:44;;;;;;;13.75;2.88;;;;;;;;;;4936070;29;20086;-63
2023/04/13 02:50:11;;;;;;;11.70;3.33;;;;;;;;;;4935991;29;20047;-64
2023/04/13 02:52:37;;;;;;;12.77;2.80;;;;;;;;;;4936116;29;20059;-64
2023/04/13 02:55:04;;;;;;;13.70;2.75;;;;;;;;;;4936084;29;20087;-63
2023/04/13 02:57:31;;;;;;;11.10;2.97;;;;;;;;;;4935932;29;20048;-63
2023/04/13 02:59:57;;;;;;;13.43;3.30;;;;;;;;;;4935846;29;20055;-64
2023/04/13 03:02:25;;;;;;;13.93;2.83;;;;;;;;;;4936051;29;20058;-64
2023/04/13 03:04:51;;;;;;;13.07;2.85;;;;;;;;;;4935749;29;20063;-64
2023/04/13 03:07:18;;;;;;;17.45;3.22;;;;;;;;;;4935963;29;20056;-64
2023/04/13 03:09:46;;;;;;;12.77;2.60;;;;;;;;;;4935892;29;20134;-63
2023/04/13 03:12:12;;;;;;;10.38;2.97;;;;;;;;;;4935691;29;20066;-63
2023/04/13 03:14:38;;;;;;;14.65;2.63;;;;;;;;;;4935789;29;20059;-64
2023/04/13 03:17:06;;;;;;;13.40;3.45;;;;;;;;;;4935567;29;20057;-63
2023/04/13 03:19:34;;;;;;;18.77;2.65;;;;;;;;;;4935449;29;20062;-64
2023/04/13 03:22:01;;;;;;;12.25;3.10;;;;;;;;;;4935523;29;20103;-63
2023/04/13 03:24:27;;;;;;;12.85;3.45;;;;;;;;;;4935518;29;20102;-64
2023/04/13 03:26:55;;;;;;;14.02;2.83;;;;;;;;;;4935571;29;20135;-64
2023/04/13 03:29:22;;;;;;;;;;;;;;;;;;4935993;29;20043;-64
2023/04/13 03:31:50;;;;;;;15.10;3.30;;;;;;;;;;4935271;29;19927;-64
2023/04/13 03:34:17;;;;;;;15.10;2.83;;;;;;;;;;4935213;29;20491;-64
2023/04/13 03:36:43;;;;;;;8.40;2.08;;;;;;;;;;4935193;29;20083;-64
2023/04/13 03:39:10;;;;;;;11.80;2.30;;;;;;;;;;4935385;29;20404;-64
2023/04/13 03:41:36;;;;;;;16.13;3.03;;;;;;;;;;4935422;29;20052;-64
2023/04/13 03:44:03;;;;;;;12.23;2.90;;;;;;;;;;4934888;29;20502;-63
2023/04/13 03:46:31;;;;;;;16.50;3.43;;;;;;;;;;4935041;29;20044;-63
2023/04/13 03:48:58;;;;;;;11.43;2.85;;;;;;;;;;4935273;29;20122;-63
2023/04/13 03:51:24;;;;;;;18.35;3.22;;;;;;;;;;4935030;29;20054;-63
2023/04/13 03:53:51;;;;;;;15.02;2.80;;;;;;;;;;4935210;29;20451;-64
2023/04/13 03:56:17;;;;;;;11.20;2.38;;;;;;;;;;4935106;29;20055;-64
2023/04/13 03:58:43;;;;;;;14.25;2.45;;;;;;;;;;4935067;29;20062;-63
2023/04/13 04:01:10;;;;;;;10.77;2.80;;;;;;;;;;4935035;29;20059;-63
2023/04/13 04:03:37;;;;;;;12.65;2.60;;;;;;;;;;4934676;29;20123;-64
2023/04/13 04:06:03;;;;;;;12.93;2.77;;;;;;;;;;4934691;29;20060;-63
2023/04/13 04:08:30;;;;;;;14.48;2.60;;;;;;;;;;4934633;29;20044;-64
2023/04/13 04:10:56;;;;;;;11.32;2.60;;;;;;;;;;4934699;29;20496;-64
2023/04/13 04:13:23;;;;;;;17.17;3.15;;;;;;;;;;4934573;29;20131;-63
2023/04/13 04:15:49;;;;;;;15.77;3.35;;;;;;;;;;4934868;29;20389;-64
2023/04/13 04:18:16;;;;;;;14.50;2.95;;;;;;;;;;4934530;29;20059;-63
2023/04/13 04:20:42;;;;;;;12.25;2.92;;;;;;;;;;4934691;29;20127;-63
2023/04/13 04:23:09;;;;;;;19.15;3.42;;;;;;;;;;4934735;29;20047;-63
2023/04/13 04:25:36;;;;;;;14.50;3.15;;;;;;;;;;4934532;29;20122;-63
2023/04/13 04:28:03;;;;;;;15.73;3.38;;;;;;;;;;4934745;29;20709;-63
2023/04/13 04:30:32;;;;;;;14.23;3.28;;;;;;;;;;4934349;29;20047;-64
2023/04/13 04:33:01;;;;;;;18.10;3.30;;;;;;;;;;4934666;29;20053;-63
2023/04/13 04:35:33;;;;;;;19.65;4.10;;;;;;;;;;4934399;29;20147;-63
2023/04/13 04:38:04;;;;;;;13.93;2.95;;;;;;;;;;4934387;29;20055;-63
2023/04/13 04:40:34;;;;;;;15.65;3.03;;;;;;;;;;4934373;29;20056;-63
2023/04/13 04:43:01;;;;;;;13.52;3.10;;;;;;;;;;4934259;29;20043;-64
2023/04/13 04:45:28;;;;;;;14.50;3.20;;;;;;;;;;4934302;29;20051;-64
2023/04/13 04:47:56;;;;;;;13.37;3.43;;;;;;;;;;4936609;29;20078;-64
2023/04/13 04:50:23;;;;;;;17.25;3.85;;;;;;;;;;4938216;29;20546;-64
2023/04/13 04:52:49;;;;;;;15.07;3.30;;;;;;;;;;4938321;29;20163;-63
2023/04/13 04:55:15;;;;;;;12.48;3.20;;;;;;;;;;4938053;29;20051;-63
2023/04/13 04:57:42;;;;;;;20.63;3.80;;;;;;;;;;4938000;29;20503;-63
2023/04/13 05:00:09;;;;;;;20.33;4.68;;;;;;;;;;4938100;29;20134;-64
2023/04/13 05:02:36;;;;;;;16.57;3.83;;;;;;;;;;4937938;29;20570;-64
2023/04/13 05:05:02;;;;;;;13.52;3.80;;;;;;;;;;4937803;29;20063;-63
2023/04/13 05:07:29;;;;;;;14.82;3.45;;;;;;;;;;4937875;29;20056;-63
2023/04/13 05:09:55;;;;;;;15.55;3.35;;;;;;;;;;4938093;29;20054;-63
2023/04/13 05:12:22;;;;;;;16.77;3.70;;;;;;;;;;4937080;29;20130;-63
2023/04/13 05:14:48;;;;;;;19.30;3.80;;;;;;;;;;4937716;29;20071;-63
2023/04/13 05:17:16;;;;;;;16.55;3.78;;;;;;;;;;4937643;29;20051;-63
2023/04/13 05:19:44;;;;;;;14.52;2.65;;;;;;;;;;4937660;29;20531;-63
2023/04/13 05:22:11;;;;;;;17.33;3.33;;;;;;;;;;4937527;29;20582;-63
2023/04/13 05:24:38;;;;;;;15.88;3.42;;;;;;;;;;4937761;29;20048;-63
2023/04/13 05:27:05;;;;;;;16.42;2.55;;;;;;;;;;4937633;29;20058;-64
2023/04/13 05:29:34;;;;;;;18.63;3.80;;;;;;;;;;4937618;29;20047;-64
2023/04/13 05:32:01;;;;;;;14.98;3.05;;;;;;;;;;4937713;29;20083;-63
2023/04/13 05:34:27;;;;;;;17.77;3.20;;;;;;;;;;4937462;29;20043;-63
2023/04/13 05:36:54;;;;;;;13.73;3.00;;;;;;;;;;4937279;29;20563;-63
2023/04/13 05:39:21;;;;;;;17.90;3.05;;;;;;;;;;4937503;29;20056;-63
2023/04/13 05:41:47;;;;;;;14.07;2.92;;;;;;;;;;4937272;29;20619;-63
2023/04/13 05:44:13;;;;;;;20.33;3.75;;;;;;;;;;4937091;29;20526;-64
2023/04/13 05:46:40;;;;;;;13.38;3.53;;;;;;;;;;4937372;29;20054;-64
2023/04/13 05:49:07;;;;;;;17.13;3.20;;;;;;;;;;4937392;29;20067;-63
2023/04/13 05:51:33;;;;;;;14.27;3.10;;;;;;;;;;4937032;29;20058;-63
2023/04/13 05:54:00;;;;;;;14.70;3.20;;;;;;;;;;4937091;29;20058;-63
2023/04/13 05:56:28;;;;;;;15.93;3.93;;;;;;;;;;4936888;29;20087;-63
2023/04/13 05:58:55;;;;;;;;;;;;;;;;;;4937161;29;20294;-63
2023/04/13 06:01:23;;;;;;;15.57;3.33;;;;;;;;;;4936888;29;20391;-64
2023/04/13 06:03:50;;;;;;;14.60;3.40;;;;;;;;;;4936698;29;20131;-63
2023/04/13 06:06:17;;;;;;;16.55;3.40;;;;;;;;;;4936786;29;20464;-63
2023/04/13 06:08:44;;;;;;;12.57;3.17;;;;;;;;;;4936786;29;20412;-63
2023/04/13 06:11:10;;;;;;;11.68;2.63;;;;;;;;;;4937064;29;20055;-64
2023/04/13 06:13:38;;;;;;;15.93;3.03;;;;;;;;;;4936586;29;20127;-63
2023/04/13 06:16:04;;;;;;;14.10;2.92;;;;;;;;;;4936692;29;20487;-63
2023/04/13 06:18:31;;;;;;;10.32;3.20;;;;;;;;;;4936826;29;20158;-63
2023/04/13 06:20:58;;;;;;;17.90;3.38;;;;;;;;;;4936501;29;20144;-63
2023/04/13 06:23:24;;;;;;;15.15;3.63;;;;;;;;;;4933839;29;20403;-63
2023/04/13 06:25:51;;;;;;;13.60;3.15;;;;;;;;;;4936720;29;20054;-64
2023/04/13 06:28:17;;;;;;;15.23;2.85;;;;;;;;;;4936649;29;20051;-63
2023/04/13 06:30:43;;;;;;;12.00;2.42;;;;;;;;;;4936610;29;20056;-63
2023/04/13 06:33:10;;;;;;;16.75;3.42;;;;;;;;;;4936235;29;20522;-63
2023/04/13 06:35:36;;;;;;;14.50;3.22;;;;;;;;;;4936262;29;20054;-63
2023/04/13 06:38:02;;;;;;;14.23;3.00;;;;;;;;;;4936191;29;20048;-63
2023/04/13 06:40:31;;;;;;;17.85;3.15;;;;;;;;;;4927047;29;20048;-63
2023/04/13 06:42:57;;;;;;;12.02;2.63;;;;;;;;;;4917768;29;20084;-63
2023/04/13 06:45:23;;;;;;;11.48;2.28;;;;;;;;;;4936372;29;20059;-63
2023/04/13 06:47:51;;;;;;;13.85;4.55;;;;;;;;;;4936219;29;20052;-64
2023/04/13 06:50:17;;;;;;;13.15;3.10;;;;;;;;;;4936310;29;20055;-63
2023/04/13 06:52:45;;;;;;;11.27;2.83;;;;;;;;;;4935484;29;20053;-63
2023/04/13 06:55:12;;;;;;;12.52;2.72;;;;;;;;;;4936203;29;20047;-63
2023/04/13 06:57:38;;;;;;;14.00;2.85;;;;;;;;;;4935889;29;20043;-64
2023/04/13 07:00:06;;;;;;;12.20;2.50;;;;;;;;;;4936023;29;20052;-64
2023/04/13 07:02:47;;;;;;;10.70;2.55;;;;;;;;;;4931272;29;20044;-63
2023/04/13 07:05:14;;;;;;;13.95;3.03;;;;;;;;;;4927483;29;20119;-64
2023/04/13 07:07:40;;;;;;;12.82;2.60;;;;;;;;;;4935801;29;20058;-63
2023/04/13 07:10:07;;;;;;;11.43;2.45;;;;;;;;;;4934991;29;20054;-64
2023/04/13 07:12:34;;;;;;;10.48;2.13;;;;;;;;;;4935587;29;20054;-64
2023/04/13 07:15:01;;;;;;;8.02;2.05;;;;;;;;;;4935507;29;20079;-63
2023/04/13 07:17:27;;;;;;;13.48;2.42;;;;;;;;;;4935456;29;20062;-64
2023/04/13 07:19:54;;;;;;;12.80;2.25;;;;;;;;;;4935577;29;20412;-64
2023/04/13 07:22:20;;;;;;;9.40;2.58;;;;;;;;;;4935421;29;20527;-63
2023/04/13 07:24:46;;;;;;;11.70;2.33;;;;;;;;;;4923869;29;20052;-63
2023/04/13 07:27:13;;;;;;;7.05;1.58;;;;;;;;;;4931497;29;20052;-63
2023/04/13 07:29:39;;;;;;;12.05;2.28;;;;;;;;;;4935478;29;20131;-64
2023/04/13 07:32:07;;;;;;;8.90;2.13;;;;;;;;;;4934747;29;20058;-63
2023/04/13 07:34:34;;;;;;;11.88;2.90;;;;;;;;;;4935257;29;20594;-63
2023/04/13 07:37:01;;;;;;;11.75;2.42;;;;;;;;;;4935255;29;20064;-64
2023/04/13 07:39:27;;;;;;;12.45;2.13;;;;;;;;;;4935072;29;20571;-64
2023/04/13 07:41:53;;;;;;;11.63;2.20;;;;;;;;;;4935345;29;20059;-64
2023/04/13 07:44:20;;;;;;;12.25;2.40;;;;;;;;;;4935137;29;20044;-64
2023/04/13 07:46:46;;;;;;;12.13;4.70;;;;;;;;;;4934979;29;20419;-64
2023/04/13 07:49:13;;;;;;;23.15;9.95;;;;;;;;;;4935162;29;20087;-64
2023/04/13 07:51:39;;;;;;;18.88;7.35;;;;;;;;;;4935265;29;20039;-64
2023/04/13 07:54:06;;;;;;;8.02;2.47;;;;;;;;;;4935189;29;20385;-64
2023/04/13 07:56:34;;;;;;;12.63;2.10;;;;;;;;;;4934824;29;20575;-64
2023/04/13 07:59:01;;;;;;;8.05;1.55;;;;;;;;;;4935174;29;20081;-63
2023/04/13 08:01:27;;;;;;;10.60;2.80;;;;;;;;;;4933567;29;20055;-64
2023/04/13 08:03:54;;;;;;;13.02;3.15;;;;;;;;;;4934861;29;20107;-64
2023/04/13 08:06:22;;;;;;;11.55;2.67;;;;;;;;;;4934694;29;20059;-64
2023/04/13 08:08:48;;;;;;;10.32;2.70;;;;;;;;;;4934859;29;20052;-64
2023/04/13 08:11:15;;;;;;;11.05;4.72;;;;;;;;;;4934898;29;20044;-64
2023/04/13 08:13:42;;;;;;;9.60;2.37;;;;;;;;;;4934945;29;20389;-64
2023/04/13 08:16:08;;;;;;;12.88;2.92;;;;;;;;;;4934917;29;20052;-64
2023/04/13 08:18:36;;;;;;;12.40;2.95;;;;;;;;;;4934752;29;20091;-64
2023/04/13 08:21:06;;;;;;;11.07;2.67;;;;;;;;;;4934567;29;20079;-63
2023/04/13 08:23:32;;;;;;;7.40;2.03;;;;;;;;;;4934313;29;20054;-63
2023/04/13 08:26:01;;;;;;;6.03;1.75;;;;;;;;;;4934710;29;20047;-63
2023/04/13 08:28:27;;;;;;;7.38;2.40;;;;;;;;;;4934728;29;20102;-63
2023/04/13 08:30:57;;;;;;;5.90;1.92;;;;;;;;;;4934523;29;20480;-63
2023/04/13 08:33:23;;;;;;;5.70;1.80;;;;;;;;;;4934371;29;20056;-63
2023/04/13 08:35:50;;;;;;;6.10;1.58;;;;;;;;;;4934549;29;20052;-63
2023/04/13 08:38:18;;;;;;;7.32;2.15;;;;;;;;;;4934609;29;20054;-63
2023/04/13 08:40:45;;;;;;;8.02;1.75;;;;;;;;;;4934238;29;20393;-63
2023/04/13 08:43:12;;;;;;;5.05;1.60;;;;;;;;;;4934342;29;20492;-63
2023/04/13 08:45:40;;;;;;;3.80;1.70;;;;;;;;;;4934580;29;20052;-63
2023/04/13 08:48:08;;;;;;;7.88;2.75;;;;;;;;;;4934285;29;20083;-63
2023/04/13 08:50:35;;;;;;;4.65;1.17;;;;;;;;;;4934545;29;20043;-63
2023/04/13 08:53:02;;;;;;;4.07;1.40;;;;;;;;;;4933210;29;20059;-63
2023/04/13 08:55:28;;;;;;;4.40;1.77;;;;;;;;;;4934493;29;20134;-63
2023/04/13 08:57:56;;;;;;;5.20;1.33;;;;;;;;;;4934270;29;20369;-63
2023/04/13 09:00:22;;;;;;;;;;;;;;;;;;4934863;29;20068;-63
2023/04/13 09:02:57;;;;;;;5.60;1.35;;;;;;;;;;4934107;29;19929;-64
2023/04/13 09:05:32;;;;;;;7.03;1.40;;;;;;;;;;4934116;29;20055;-63
2023/04/13 09:08:00;;;;;;;7.63;1.52;;;;;;;;;;4934348;29;20062;-63
2023/04/13 09:10:27;;;;;;;5.35;1.33;;;;;;;;;;4934452;29;20127;-63
2023/04/13 09:12:54;;;;;;;22.27;17.55;;;;;;;;;;4934217;29;20166;-63
2023/04/13 09:15:21;;;;;;;6.57;2.83;;;;;;;;;;4934194;29;20059;-63
2023/04/13 09:17:48;;;;;;;7.78;2.85;;;;;;;;;;4934349;29;20475;-63
2023/04/13 09:20:21;;;;;;;5.85;1.73;;;;;;;;;;4934292;29;20062;-63
2023/04/13 09:22:48;;;;;;;6.57;1.70;;;;;;;;;;4934025;29;20559;-63
2023/04/13 09:25:21;;;;;;;3.42;0.90;;;;;;;;;;4934183;29;20047;-63
2023/04/13 09:27:48;;;;;;;2.13;0.50;;;;;;;;;;4934005;29;20496;-63
2023/04/13 09:30:17;;;;;;;2.42;0.80;;;;;;;;;;4934242;29;20135;-63
2023/04/13 09:32:44;;;;;;;3.15;0.73;;;;;;;;;;4934202;29;20043;-63
2023/04/13 09:35:11;;;;;;;2.00;0.60;;;;;;;;;;4937516;29;20082;-63
2023/04/13 09:37:41;;;;;;;3.08;0.80;;;;;;;;;;4937348;29;20049;-63
2023/04/13 09:40:12;;;;;;;4.13;1.00;;;;;;;;;;4937345;29;20134;-63
2023/04/13 09:42:39;;;;;;;2.97;0.80;;;;;;;;;;4937195;29;20519;-63
2023/04/13 09:45:05;;;;;;;5.72;1.90;;;;;;;;;;4937174;29;20142;-63
2023/04/13 09:47:39;;;;;;;6.00;1.80;;;;;;;;;;4937374;29;20134;-63
2023/04/13 09:50:16;;;;;;;4.13;1.33;;;;;;;;;;4937217;29;20051;-63
2023/04/13 09:52:43;;;;;;;5.05;1.30;;;;;;;;;;4937103;29;20472;-63
2023/04/13 09:55:10;;;;;;;;;;;;;;;;;;4937750;29;20058;-63
2023/04/13 09:57:37;;;;;;;;;;;;;;;;;;4937308;29;19926;-63
2023/04/13 10:00:06;;;;;;;6.18;0.95;;;;;;;;;;4935969;29;20032;-63
2023/04/13 10:02:32;;;;;;;5.60;1.13;;;;;;;;;;4936871;29;20515;-63
2023/04/13 10:04:59;;;;;;;6.38;1.10;;;;;;;;;;4936614;29;20063;-63
2023/04/13 10:07:29;;;;;;;6.28;1.23;;;;;;;;;;4936900;29;20052;-63
2023/04/13 10:09:55;;;;;;;5.85;1.50;;;;;;;;;;4937065;29;20074;-63
2023/04/13 10:12:23;;;;;;;6.00;1.13;;;;;;;;;;4937025;29;20423;-63
2023/04/13 10:14:51;;;;;;;5.82;1.08;;;;;;;;;;4936949;29;20475;-63
2023/04/13 10:17:18;;;;;;;3.80;1.00;;;;;;;;;;4936953;29;20392;-63
2023/04/13 10:19:48;;;;;;;5.82;1.00;;;;;;;;;;4936590;29;20146;-63
2023/04/13 10:22:15;;;;;;;6.13;1.48;;;;;;;;;;4936546;29;20078;-63
2023/04/13 10:24:42;;;;;;;6.03;1.58;;;;;;;;;;4936409;29;20493;-63
2023/04/13 10:27:10;;;;;;;4.78;0.93;;;;;;;;;;4936417;29;20052;-63
2023/04/13 10:29:36;;;;;;;3.75;1.40;;;;;;;;;;4936547;29;20131;-63
2023/04/13 10:32:03;;;;;;;5.75;1.35;;;;;;;;;;4936735;29;20134;-63
2023/04/13 10:34:31;;;;;;;6.30;1.10;;;;;;;;;;4936582;29;20050;-63
2023/04/13 10:37:02;;;;;;;3.45;1.08;;;;;;;;;;4936287;29;20052;-63
2023/04/13 10:39:30;;;;;;;5.25;1.67;;;;;;;;;;4936205;29;20470;-63
2023/04/13 10:42:04;;;;;;;4.05;0.98;;;;;;;;;;4936207;29;20488;-63
2023/04/13 10:44:47;;;;;;;4.80;1.20;;;;;;;;;;4935388;29;20163;-63
2023/04/13 10:47:15;;;;;;;5.72;1.73;;;;;;;;;;4936424;29;20055;-63
2023/04/13 10:49:42;;;;;;;5.28;1.95;;;;;;;;;;4936276;29;20062;-63
2023/04/13 10:52:08;;;;;;;;;;;;;;;;;;4936793;29;20052;-63
2023/04/13 10:54:36;;;;;;;5.45;2.25;;;;;;;;;;4935929;29;19922;-63
2023/04/13 10:57:05;;;;;;;5.70;2.85;;;;;;;;;;4935922;29;20055;-63
2023/04/13 10:59:38;;;;;;;3.92;2.05;;;;;;;;;;4936122;29;20138;-63
2023/04/13 11:02:24;;;;;;;5.53;1.50;;;;;;;;;;4936188;29;20102;-63
2023/04/13 11:04:51;;;;;;;6.18;2.03;;;;;;;;;;4935652;29;20139;-63
2023/04/13 11:07:22;;;;;;;9.23;3.63;;;;;;;;;;4935800;29;20509;-63
2023/04/13 11:09:51;;;;;;;4.53;1.88;;;;;;;;;;4935703;29;20052;-64
2023/04/13 11:12:18;;;;;;;7.20;2.67;;;;;;;;;;4935044;29;20048;-64
2023/04/13 11:14:45;;;;;;;4.82;1.90;;;;;;;;;;4934868;29;20059;-64
2023/04/13 11:17:11;;;;;;;;;;;;;;;;;;4934898;29;20054;-64
2023/04/13 11:19:46;;;;;;;7.22;3.35;;;;;;;;;;4935558;29;19950;-64
2023/04/13 11:22:16;;;;;;;3.40;1.63;;;;;;;;;;4935158;29;20571;-64
2023/04/13 11:24:43;;;;;;;6.10;2.00;;;;;;;;;;4935291;29;20418;-64
2023/04/13 11:27:28;;;;;;;5.05;0.93;;;;;;;;;;4935523;29;20146;-64
2023/04/13 11:30:04;;;;;;;5.15;1.88;;;;;;;;;;4935357;29;20130;-64
2023/04/13 11:32:32;;;;;;;;;;;;;;;;;;4934609;29;20054;-64
2023/04/13 11:35:07;;;;;;;7.13;2.50;;;;;;;;;;4935510;29;20027;-64
2023/04/13 11:37:38;;;;;;;4.55;2.08;;;;;;;;;;4935470;29;20110;-64
2023/04/13 11:40:20;;;;;;;7.47;3.92;;;;;;;;;;4935496;29;20051;-64
2023/04/13 11:42:47;;;;;;;6.28;1.60;;;;;;;;;;4935212;29;20043;-64
2023/04/13 11:45:16;;;;;;;6.05;3.15;;;;;;;;;;4935260;29;20139;-64
2023/04/13 11:47:48;;;;;;;3.40;1.10;;;;;;;;;;4935288;29;20055;-64
2023/04/13 11:50:16;;;;;;;5.47;2.28;;;;;;;;;;4935277;29;20052;-64
2023/04/13 11:52:44;;;;;;;3.15;1.63;;;;;;;;;;4935205;29;20362;-64
2023/04/13 11:55:10;;;;;;;3.05;1.00;;;;;;;;;;4935179;29;20080;-64
2023/04/13 11:57:49;;;;;;;4.55;1.17;;;;;;;;;;4934642;29;20048;-63
2023/04/13 12:00:22;;;;;;;4.30;1.50;;;;;;;;;;4934722;29;20056;-63
2023/04/13 12:02:50;;;;;;;2.50;0.98;;;;;;;;;;4934693;29;20064;-64
2023/04/13 12:05:29;;;;;;;4.25;1.90;;;;;;;;;;4934555;29;20056;-64
2023/04/13 12:07:57;;;;;;;6.40;2.55;;;;;;;;;;4934786;29;20052;-64
2023/04/13 12:10:25;;;;;;;5.65;2.38;;;;;;;;;;4934911;29;20063;-64
2023/04/13 12:13:07;;;;;;;8.60;3.05;;;;;;;;;;4934649;29;20537;-64
2023/04/13 12:15:53;;;;;;;9.15;4.20;;;;;;;;;;4934634;29;20503;-64
2023/04/13 12:18:22;;;;;;;5.45;1.83;;;;;;;;;;4934569;29;20047;-63
2023/04/13 12:20:59;;;;;;;3.55;1.17;;;;;;;;;;4934808;29;20047;-63
2023/04/13 12:23:26;;;;;;;2.13;0.55;;;;;;;;;;4934805;29;20079;-63
2023/04/13 12:25:54;;;;;;;5.45;2.00;;;;;;;;;;4934557;29;20056;-63
2023/04/13 12:28:20;;;;;;;11.13;6.35;;;;;;;;;;4934790;29;20054;-63
2023/04/13 12:30:47;;;;;;;;;;;;;;;;;;4934852;29;20558;-64
2023/04/13 12:33:13;;;;;;;5.75;3.00;;;;;;;;;;4934580;29;19926;-64
2023/04/13 12:35:39;;;;;;;;;;;;;;;;;;4934975;29;20087;-61
2023/04/13 12:38:06;;;;;;;5.45;1.50;;;;;;;;;;4934403;29;19927;-61
2023/04/13 12:40:33;;;;;;;3.85;1.10;;;;;;;;;;4934373;29;20510;-61
2023/04/13 12:43:00;;;;;;;4.53;1.33;;;;;;;;;;4934262;29;20054;-61
2023/04/13 12:45:27;;;;;;;4.35;0.80;;;;;;;;;;4934473;29;20059;-61
2023/04/13 12:47:53;;;;;;;1.58;0.50;;;;;;;;;;4932999;29;20481;-61
2023/04/13 12:50:19;;;;;;;;;;;;;;;;;;4934706;29;20048;-61
2023/04/13 12:52:46;;;;;;;1.70;0.57;;;;;;;;;;4934412;29;19926;-61
2023/04/13 12:55:12;;;;;;;3.05;0.80;;;;;;;;;;4934477;29;20066;-61
2023/04/13 12:57:38;;;;;;;;;;;;;;;;;;4934542;29;20066;-61
2023/04/13 13:00:09;;;;;;;3.60;0.95;;;;;;;;;;4934254;29;20026;-61
2023/04/13 13:02:36;;;;;;;4.95;1.20;;;;;;;;;;4933144;29;20058;-61
2023/04/13 13:05:03;;;;;;;3.53;1.00;;;;;;;;;;4934034;29;20056;-61
2023/04/13 13:07:30;;;;;;;3.58;1.23;;;;;;;;;;4934194;29;20378;-61
2023/04/13 13:09:59;;;;;;;3.78;1.23;;;;;;;;;;4937817;29;20122;-61
2023/04/13 13:12:28;;;;;;;2.92;1.20;;;;;;;;;;4937870;29;20073;-61
2023/04/13 13:14:56;;;;;;;3.38;1.20;;;;;;;;;;4937707;29;20098;-61
2023/04/13 13:17:23;;;;;;;2.30;1.40;;;;;;;;;;4937992;29;20056;-62
2023/04/13 13:19:49;;;;;;;;;;;;;;;;;;4938421;29;20110;-61
2023/04/13 13:22:15;;;;;;;2.85;1.00;;;;;;;;;;4937667;29;19929;-62
2023/04/13 13:24:42;;;;;;;2.40;1.02;;;;;;;;;;4937715;29;20059;-62
2023/04/13 13:27:09;;;;;;;3.45;1.00;;;;;;;;;;4937456;29;20522;-62
2023/04/13 13:29:38;;;;;;;3.63;1.73;;;;;;;;;;4937583;29;20043;-62
2023/04/13 13:32:05;;;;;;;3.95;1.50;;;;;;;;;;4937736;29;20412;-61
2023/04/13 13:34:31;;;;;;;3.58;2.13;;;;;;;;;;4937696;29;20051;-62
2023/04/13 13:36:58;;;;;;;;;;;;;;;;;;4937819;29;20492;-62
2023/04/13 13:39:24;;;;;;;2.85;0.85;;;;;;;;;;4937434;29;19922;-62
2023/04/13 13:41:50;;;;;;;2.28;0.60;;;;;;;;;;4937553;29;20050;-62
2023/04/13 13:44:17;;;;;;;2.72;0.68;;;;;;;;;;4937068;29;20138;-62
2023/04/13 13:46:43;;;;;;;;;;;;;;;;;;4937507;29;20047;-62
2023/04/13 13:49:10;;;;;;;1.80;0.50;;;;;;;;;;4937690;29;19933;-62
2023/04/13 13:51:37;;;;;;;2.35;0.77;;;;;;;;;;4937410;29;20044;-62
2023/04/13 13:54:03;;;;;;;2.13;0.60;;;;;;;;;;4937095;29;20058;-62
2023/04/13 13:56:29;;;;;;;2.45;0.60;;;;;;;;;;4936980;29;20055;-62
2023/04/13 13:58:56;;;;;;;3.05;1.05;;;;;;;;;;4936926;29;20512;-62
2023/04/13 14:01:23;;;;;;;2.08;0.80;;;;;;;;;;4937191;29;20112;-62
2023/04/13 14:03:49;;;;;;;2.58;0.65;;;;;;;;;;4937120;29;20138;-62
2023/04/13 14:06:16;;;;;;;;;;;;;;;;;;4936888;29;20506;-62
2023/04/13 14:08:42;;;;;;;2.75;0.70;;;;;;;;;;4936939;29;19922;-62
2023/04/13 14:11:08;;;;;;;;;;;;;;;;;;4937395;29;20044;-62
2023/04/13 14:13:35;;;;;;;3.60;0.70;;;;;;;;;;4936868;29;19933;-62
2023/04/13 14:16:01;;;;;;;4.35;0.95;;;;;;;;;;4936873;29;20059;-62
2023/04/13 14:18:28;;;;;;;;;;;;;;;;;;4937257;29;20055;-62
2023/04/13 14:20:56;;;;;;;2.90;1.38;;;;;;;;;;4936671;29;19923;-62
2023/04/13 14:23:23;;;;;;;5.60;1.30;;;;;;;;;;4936610;29;20051;-62
2023/04/13 14:25:49;;;;;;;4.28;1.33;;;;;;;;;;4935406;29;20040;-62
2023/04/13 14:28:17;;;;;;;;;;;;;;;;;;4936877;29;20058;-62
2023/04/13 14:30:44;;;;;;;3.45;0.65;;;;;;;;;;4936392;29;19941;-62
2023/04/13 14:33:13;;;;;;;4.05;0.88;;;;;;;;;;4936553;29;20140;-62
2023/04/13 14:35:39;;;;;;;4.05;1.10;;;;;;;;;;4936238;29;20056;-62
2023/04/13 14:38:07;;;;;;;3.05;0.70;;;;;;;;;;4936245;29;20487;-62
2023/04/13 14:40:33;;;;;;;4.10;0.88;;;;;;;;;;4936231;29;20110;-62
2023/04/13 14:43:00;;;;;;;3.60;0.75;;;;;;;;;;4936094;29;20052;-62
2023/04/13 14:45:26;;;;;;;;;;;;;;;;;;4936701;29;20094;-62
2023/04/13 14:47:52;;;;;;;;;;;;;;;;;;4936438;29;19927;-62
2023/04/13 14:50:19;;;;;;;;;;;;;;;;;;4936560;29;19923;-62